Terminal Aerodrome Forecast
Issued by NWS Charleston, WV

Current Version | Previous Version | Graphics & Text | Print | Product List | Glossary On
Versions: 1 2 3 4 5 6 7 8 9 10 11 12 13 14 15 16 17 18 19 20 21 22 23 24 25
000
FTUS41 KRLX 292300
TAFEKN
TAF
KEKN 292325Z 3000/3024 VRB03KT P6SM SCT045
     FM300200 00000KT 6SM BR SCT045
     FM300300 00000KT 4SM BR SCT045
     FM300600 00000KT 1/4SM FG OVC001
     FM301200 00000KT 2SM BR BKN003
     FM301300 VRB03KT P6SM SCT060
     FM301900 29006KT P6SM VCSH BKN070
     FM302300 VRB03KT P6SM BKN040=

USA.gov is the U.S. government's official web portal to all federal, state and local government web resources and services.